sensor_id;sensor_type;location;lat;lon;timestamp;P1;durP1;ratioP1;P2;durP2;ratioP2
4409;SDS011;2218;51.408;7.208;2023-07-13T00:02:15;0.73;;;0.63;;
4409;SDS011;2218;51.408;7.208;2023-07-13T00:04:42;0.80;;;0.80;;
4409;SDS011;2218;51.408;7.208;2023-07-13T00:07:09;0.80;;;0.80;;
4409;SDS011;2218;51.408;7.208;2023-07-13T00:09:39;0.73;;;0.60;;
4409;SDS011;2218;51.408;7.208;2023-07-13T00:12:20;0.80;;;0.80;;
4409;SDS011;2218;51.408;7.208;2023-07-13T00:14:50;1.37;;;0.70;;
4409;SDS011;2218;51.408;7.208;2023-07-13T00:17:18;0.80;;;0.60;;
4409;SDS011;2218;51.408;7.208;2023-07-13T00:19:45;0.80;;;0.80;;
4409;SDS011;2218;51.408;7.208;2023-07-13T00:22:13;1.23;;;0.77;;
4409;SDS011;2218;51.408;7.208;2023-07-13T00:24:40;1.00;;;0.90;;
4409;SDS011;2218;51.408;7.208;2023-07-13T00:27:07;0.90;;;0.70;;
4409;SDS011;2218;51.408;7.208;2023-07-13T00:29:34;0.70;;;0.60;;
4409;SDS011;2218;51.408;7.208;2023-07-13T00:32:02;0.80;;;0.60;;
4409;SDS011;2218;51.408;7.208;2023-07-13T00:34:32;0.77;;;0.63;;
4409;SDS011;2218;51.408;7.208;2023-07-13T00:36:59;0.80;;;0.60;;
4409;SDS011;2218;51.408;7.208;2023-07-13T00:39:26;1.23;;;0.60;;
4409;SDS011;2218;51.408;7.208;2023-07-13T00:41:53;0.80;;;0.70;;
4409;SDS011;2218;51.408;7.208;2023-07-13T00:44:20;0.70;;;0.50;;
4409;SDS011;2218;51.408;7.208;2023-07-13T00:46:49;1.53;;;0.70;;
4409;SDS011;2218;51.408;7.208;2023-07-13T00:49:18;0.90;;;0.70;;
4409;SDS011;2218;51.408;7.208;2023-07-13T00:51:50;0.70;;;0.60;;
4409;SDS011;2218;51.408;7.208;2023-07-13T00:54:24;1.10;;;0.70;;
4409;SDS011;2218;51.408;7.208;2023-07-13T00:56:58;1.03;;;0.60;;
4409;SDS011;2218;51.408;7.208;2023-07-13T00:59:28;0.70;;;0.70;;
4409;SDS011;2218;51.408;7.208;2023-07-13T01:01:57;0.80;;;0.70;;
4409;SDS011;2218;51.408;7.208;2023-07-13T01:04:24;0.90;;;0.60;;
4409;SDS011;2218;51.408;7.208;2023-07-13T01:06:55;0.80;;;0.67;;
4409;SDS011;2218;51.408;7.208;2023-07-13T01:09:23;0.70;;;0.60;;
4409;SDS011;2218;51.408;7.208;2023-07-13T01:11:52;0.70;;;0.60;;
4409;SDS011;2218;51.408;7.208;2023-07-13T01:14:19;0.90;;;0.80;;
4409;SDS011;2218;51.408;7.208;2023-07-13T01:16:47;0.80;;;0.77;;
4409;SDS011;2218;51.408;7.208;2023-07-13T01:19:35;0.90;;;0.60;;
4409;SDS011;2218;51.408;7.208;2023-07-13T01:22:12;0.80;;;0.70;;
4409;SDS011;2218;51.408;7.208;2023-07-13T01:24:42;0.70;;;0.60;;
4409;SDS011;2218;51.408;7.208;2023-07-13T01:27:15;0.80;;;0.70;;
4409;SDS011;2218;51.408;7.208;2023-07-13T01:29:46;0.90;;;0.60;;
4409;SDS011;2218;51.408;7.208;2023-07-13T01:32:15;0.90;;;0.70;;
4409;SDS011;2218;51.408;7.208;2023-07-13T01:34:47;0.80;;;0.60;;
4409;SDS011;2218;51.408;7.208;2023-07-13T01:37:17;0.77;;;0.57;;
4409;SDS011;2218;51.408;7.208;2023-07-13T01:39:44;0.90;;;0.80;;
4409;SDS011;2218;51.408;7.208;2023-07-13T01:42:11;0.77;;;0.60;;
4409;SDS011;2218;51.408;7.208;2023-07-13T01:44:39;0.70;;;0.60;;
4409;SDS011;2218;51.408;7.208;2023-07-13T01:47:06;1.47;;;0.87;;
4409;SDS011;2218;51.408;7.208;2023-07-13T01:49:33;0.90;;;0.60;;
4409;SDS011;2218;51.408;7.208;2023-07-13T01:52:01;0.70;;;0.57;;
4409;SDS011;2218;51.408;7.208;2023-07-13T01:54:31;0.70;;;0.50;;
4409;SDS011;2218;51.408;7.208;2023-07-13T01:56:59;0.70;;;0.60;;
4409;SDS011;2218;51.408;7.208;2023-07-13T01:59:26;0.70;;;0.67;;
4409;SDS011;2218;51.408;7.208;2023-07-13T02:01:52;0.70;;;0.67;;
4409;SDS011;2218;51.408;7.208;2023-07-13T02:04:19;0.70;;;0.60;;
4409;SDS011;2218;51.408;7.208;2023-07-13T02:06:46;0.80;;;0.73;;
4409;SDS011;2218;51.408;7.208;2023-07-13T02:09:15;0.80;;;0.80;;
4409;SDS011;2218;51.408;7.208;2023-07-13T02:11:43;0.77;;;0.60;;
4409;SDS011;2218;51.408;7.208;2023-07-13T02:14:10;0.90;;;0.70;;
4409;SDS011;2218;51.408;7.208;2023-07-13T02:16:37;1.07;;;0.60;;
4409;SDS011;2218;51.408;7.208;2023-07-13T02:19:04;0.80;;;0.70;;
4409;SDS011;2218;51.408;7.208;2023-07-13T02:21:31;0.70;;;0.60;;
4409;SDS011;2218;51.408;7.208;2023-07-13T02:23:58;0.80;;;0.70;;
4409;SDS011;2218;51.408;7.208;2023-07-13T02:26:26;0.70;;;0.60;;
4409;SDS011;2218;51.408;7.208;2023-07-13T02:28:55;0.80;;;0.67;;
4409;SDS011;2218;51.408;7.208;2023-07-13T02:31:22;0.80;;;0.60;;
4409;SDS011;2218;51.408;7.208;2023-07-13T02:33:49;0.70;;;0.50;;
4409;SDS011;2218;51.408;7.208;2023-07-13T02:36:18;1.00;;;0.77;;
4409;SDS011;2218;51.408;7.208;2023-07-13T02:38:45;0.70;;;0.60;;
4409;SDS011;2218;51.408;7.208;2023-07-13T02:41:12;0.80;;;0.80;;
4409;SDS011;2218;51.408;7.208;2023-07-13T02:43:39;0.80;;;0.70;;
4409;SDS011;2218;51.408;7.208;2023-07-13T02:46:09;0.70;;;0.60;;
4409;SDS011;2218;51.408;7.208;2023-07-13T02:48:37;0.80;;;0.73;;
4409;SDS011;2218;51.408;7.208;2023-07-13T02:51:06;1.10;;;0.80;;
4409;SDS011;2218;51.408;7.208;2023-07-13T02:53:34;0.80;;;0.80;;
4409;SDS011;2218;51.408;7.208;2023-07-13T02:56:01;0.80;;;0.70;;
4409;SDS011;2218;51.408;7.208;2023-07-13T02:58:28;1.13;;;0.60;;
4409;SDS011;2218;51.408;7.208;2023-07-13T03:00:55;1.37;;;0.60;;
4409;SDS011;2218;51.408;7.208;2023-07-13T03:03:26;0.80;;;0.60;;
4409;SDS011;2218;51.408;7.208;2023-07-13T03:05:57;0.70;;;0.60;;
4409;SDS011;2218;51.408;7.208;2023-07-13T03:08:33;0.80;;;0.60;;
4409;SDS011;2218;51.408;7.208;2023-07-13T03:11:00;0.70;;;0.57;;
4409;SDS011;2218;51.408;7.208;2023-07-13T03:13:31;0.70;;;0.50;;
4409;SDS011;2218;51.408;7.208;2023-07-13T03:15:59;0.80;;;0.80;;
4409;SDS011;2218;51.408;7.208;2023-07-13T03:18:27;1.00;;;0.90;;
4409;SDS011;2218;51.408;7.208;2023-07-13T03:20:57;0.70;;;0.50;;
4409;SDS011;2218;51.408;7.208;2023-07-13T03:23:24;0.70;;;0.60;;
4409;SDS011;2218;51.408;7.208;2023-07-13T03:26:00;0.80;;;0.70;;
4409;SDS011;2218;51.408;7.208;2023-07-13T03:28:30;0.80;;;0.67;;
4409;SDS011;2218;51.408;7.208;2023-07-13T03:31:02;0.77;;;0.60;;
4409;SDS011;2218;51.408;7.208;2023-07-13T03:33:35;0.70;;;0.60;;
4409;SDS011;2218;51.408;7.208;2023-07-13T03:36:04;0.80;;;0.70;;
4409;SDS011;2218;51.408;7.208;2023-07-13T03:38:33;0.80;;;0.77;;
4409;SDS011;2218;51.408;7.208;2023-07-13T03:41:02;0.70;;;0.70;;
4409;SDS011;2218;51.408;7.208;2023-07-13T03:43:29;1.10;;;0.70;;
4409;SDS011;2218;51.408;7.208;2023-07-13T03:45:56;0.90;;;0.70;;
4409;SDS011;2218;51.408;7.208;2023-07-13T03:48:23;0.70;;;0.50;;
4409;SDS011;2218;51.408;7.208;2023-07-13T03:50:51;0.90;;;0.63;;
4409;SDS011;2218;51.408;7.208;2023-07-13T03:53:19;0.70;;;0.60;;
4409;SDS011;2218;51.408;7.208;2023-07-13T03:55:46;0.90;;;0.70;;
4409;SDS011;2218;51.408;7.208;2023-07-13T03:58:29;0.70;;;0.70;;
4409;SDS011;2218;51.408;7.208;2023-07-13T04:01:08;0.73;;;0.60;;
4409;SDS011;2218;51.408;7.208;2023-07-13T04:03:38;1.00;;;0.70;;
4409;SDS011;2218;51.408;7.208;2023-07-13T04:06:07;0.93;;;0.63;;
4409;SDS011;2218;51.408;7.208;2023-07-13T04:08:46;0.80;;;0.60;;
4409;SDS011;2218;51.408;7.208;2023-07-13T04:11:15;0.70;;;0.53;;
4409;SDS011;2218;51.408;7.208;2023-07-13T04:13:43;0.80;;;0.63;;
4409;SDS011;2218;51.408;7.208;2023-07-13T04:16:10;0.80;;;0.60;;
4409;SDS011;2218;51.408;7.208;2023-07-13T04:18:38;0.70;;;0.50;;
4409;SDS011;2218;51.408;7.208;2023-07-13T04:21:07;0.93;;;0.70;;
4409;SDS011;2218;51.408;7.208;2023-07-13T04:23:35;0.80;;;0.60;;
4409;SDS011;2218;51.408;7.208;2023-07-13T04:26:03;1.27;;;0.80;;
4409;SDS011;2218;51.408;7.208;2023-07-13T04:28:31;0.70;;;0.53;;
4409;SDS011;2218;51.408;7.208;2023-07-13T04:30:59;0.70;;;0.60;;
4409;SDS011;2218;51.408;7.208;2023-07-13T04:33:26;1.10;;;0.80;;
4409;SDS011;2218;51.408;7.208;2023-07-13T04:35:54;0.80;;;0.70;;
4409;SDS011;2218;51.408;7.208;2023-07-13T04:38:26;0.73;;;0.60;;
4409;SDS011;2218;51.408;7.208;2023-07-13T04:40:55;0.80;;;0.80;;
4409;SDS011;2218;51.408;7.208;2023-07-13T04:43:24;0.80;;;0.70;;
4409;SDS011;2218;51.408;7.208;2023-07-13T04:45:52;0.70;;;0.60;;
4409;SDS011;2218;51.408;7.208;2023-07-13T04:48:19;0.70;;;0.53;;
4409;SDS011;2218;51.408;7.208;2023-07-13T04:50:47;0.80;;;0.50;;
4409;SDS011;2218;51.408;7.208;2023-07-13T04:53:21;0.80;;;0.70;;
4409;SDS011;2218;51.408;7.208;2023-07-13T04:55:49;0.70;;;0.60;;
4409;SDS011;2218;51.408;7.208;2023-07-13T04:58:16;0.80;;;0.70;;
4409;SDS011;2218;51.408;7.208;2023-07-13T05:00:43;0.80;;;0.60;;
4409;SDS011;2218;51.408;7.208;2023-07-13T05:03:10;0.70;;;0.53;;
4409;SDS011;2218;51.408;7.208;2023-07-13T05:05:37;0.80;;;0.63;;
4409;SDS011;2218;51.408;7.208;2023-07-13T05:08:04;0.80;;;0.60;;
4409;SDS011;2218;51.408;7.208;2023-07-13T05:10:32;0.90;;;0.60;;
4409;SDS011;2218;51.408;7.208;2023-07-13T05:13:01;0.90;;;0.70;;
4409;SDS011;2218;51.408;7.208;2023-07-13T05:15:28;1.07;;;0.70;;
4409;SDS011;2218;51.408;7.208;2023-07-13T05:17:55;0.80;;;0.60;;
4409;SDS011;2218;51.408;7.208;2023-07-13T05:20:22;0.70;;;0.60;;
4409;SDS011;2218;51.408;7.208;2023-07-13T05:22:49;0.70;;;0.60;;
4409;SDS011;2218;51.408;7.208;2023-07-13T05:25:16;1.53;;;0.57;;
4409;SDS011;2218;51.408;7.208;2023-07-13T05:27:43;0.80;;;0.67;;
4409;SDS011;2218;51.408;7.208;2023-07-13T05:30:13;1.00;;;0.87;;
4409;SDS011;2218;51.408;7.208;2023-07-13T05:32:41;1.53;;;0.60;;
4409;SDS011;2218;51.408;7.208;2023-07-13T05:35:08;0.70;;;0.60;;
4409;SDS011;2218;51.408;7.208;2023-07-13T05:37:36;0.70;;;0.50;;
4409;SDS011;2218;51.408;7.208;2023-07-13T05:40:04;0.70;;;0.53;;
4409;SDS011;2218;51.408;7.208;2023-07-13T05:42:33;1.03;;;0.53;;
4409;SDS011;2218;51.408;7.208;2023-07-13T05:45:00;0.70;;;0.70;;
4409;SDS011;2218;51.408;7.208;2023-07-13T05:47:29;0.80;;;0.70;;
4409;SDS011;2218;51.408;7.208;2023-07-13T05:49:56;0.70;;;0.50;;
4409;SDS011;2218;51.408;7.208;2023-07-13T05:52:23;1.00;;;0.70;;
4409;SDS011;2218;51.408;7.208;2023-07-13T05:54:50;1.10;;;0.63;;
4409;SDS011;2218;51.408;7.208;2023-07-13T05:57:17;0.90;;;0.60;;
4409;SDS011;2218;51.408;7.208;2023-07-13T05:59:44;0.80;;;0.80;;
4409;SDS011;2218;51.408;7.208;2023-07-13T06:02:11;0.70;;;0.60;;
4409;SDS011;2218;51.408;7.208;2023-07-13T06:04:39;0.80;;;0.60;;
4409;SDS011;2218;51.408;7.208;2023-07-13T06:07:06;0.70;;;0.60;;
4409;SDS011;2218;51.408;7.208;2023-07-13T06:09:33;1.03;;;0.67;;
4409;SDS011;2218;51.408;7.208;2023-07-13T06:12:00;1.00;;;0.60;;
4409;SDS011;2218;51.408;7.208;2023-07-13T06:14:27;0.70;;;0.57;;
4409;SDS011;2218;51.408;7.208;2023-07-13T06:16:54;0.80;;;0.60;;
4409;SDS011;2218;51.408;7.208;2023-07-13T06:19:21;0.80;;;0.60;;
4409;SDS011;2218;51.408;7.208;2023-07-13T06:21:49;1.57;;;0.67;;
4409;SDS011;2218;51.408;7.208;2023-07-13T06:24:16;1.00;;;0.80;;
4409;SDS011;2218;51.408;7.208;2023-07-13T06:26:43;0.70;;;0.60;;
4409;SDS011;2218;51.408;7.208;2023-07-13T06:29:10;1.13;;;0.70;;
4409;SDS011;2218;51.408;7.208;2023-07-13T06:31:37;0.83;;;0.83;;
4409;SDS011;2218;51.408;7.208;2023-07-13T06:34:04;1.30;;;0.50;;
4409;SDS011;2218;51.408;7.208;2023-07-13T06:36:31;0.70;;;0.60;;
4409;SDS011;2218;51.408;7.208;2023-07-13T06:38:59;5.10;;;1.63;;
4409;SDS011;2218;51.408;7.208;2023-07-13T06:41:26;2.70;;;1.60;;
4409;SDS011;2218;51.408;7.208;2023-07-13T06:43:53;8.63;;;1.70;;
4409;SDS011;2218;51.408;7.208;2023-07-13T06:46:20;2.67;;;1.30;;
4409;SDS011;2218;51.408;7.208;2023-07-13T06:48:49;8.27;;;2.63;;
4409;SDS011;2218;51.408;7.208;2023-07-13T06:51:15;3.43;;;1.30;;
4409;SDS011;2218;51.408;7.208;2023-07-13T06:53:43;5.80;;;1.93;;
4409;SDS011;2218;51.408;7.208;2023-07-13T06:56:11;4.37;;;1.37;;
4409;SDS011;2218;51.408;7.208;2023-07-13T06:58:38;11.43;;;2.23;;
4409;SDS011;2218;51.408;7.208;2023-07-13T07:01:05;4.87;;;1.63;;
4409;SDS011;2218;51.408;7.208;2023-07-13T07:03:32;10.73;;;1.97;;
4409;SDS011;2218;51.408;7.208;2023-07-13T07:06:03;12.50;;;2.30;;
4409;SDS011;2218;51.408;7.208;2023-07-13T07:08:43;7.47;;;2.10;;
4409;SDS011;2218;51.408;7.208;2023-07-13T07:11:12;4.80;;;1.53;;
4409;SDS011;2218;51.408;7.208;2023-07-13T07:13:44;8.67;;;2.80;;
4409;SDS011;2218;51.408;7.208;2023-07-13T07:16:11;5.53;;;2.20;;
4409;SDS011;2218;51.408;7.208;2023-07-13T07:18:38;7.03;;;2.90;;
4409;SDS011;2218;51.408;7.208;2023-07-13T07:21:05;6.40;;;2.20;;
4409;SDS011;2218;51.408;7.208;2023-07-13T07:23:32;7.30;;;2.77;;
4409;SDS011;2218;51.408;7.208;2023-07-13T07:25:59;4.30;;;2.47;;
4409;SDS011;2218;51.408;7.208;2023-07-13T07:28:27;13.23;;;2.97;;
4409;SDS011;2218;51.408;7.208;2023-07-13T07:30:55;8.87;;;2.20;;
4409;SDS011;2218;51.408;7.208;2023-07-13T07:33:23;7.10;;;2.03;;
4409;SDS011;2218;51.408;7.208;2023-07-13T07:35:51;9.53;;;2.87;;
4409;SDS011;2218;51.408;7.208;2023-07-13T07:38:18;7.17;;;2.10;;
4409;SDS011;2218;51.408;7.208;2023-07-13T07:40:46;5.60;;;1.53;;
4409;SDS011;2218;51.408;7.208;2023-07-13T07:43:13;1.93;;;1.60;;
4409;SDS011;2218;51.408;7.208;2023-07-13T07:45:41;4.53;;;1.90;;
4409;SDS011;2218;51.408;7.208;2023-07-13T07:48:10;3.97;;;1.53;;
4409;SDS011;2218;51.408;7.208;2023-07-13T07:50:38;2.43;;;1.40;;
4409;SDS011;2218;51.408;7.208;2023-07-13T07:53:05;3.07;;;1.83;;
4409;SDS011;2218;51.408;7.208;2023-07-13T07:55:35;2.33;;;1.10;;
4409;SDS011;2218;51.408;7.208;2023-07-13T07:58:02;11.00;;;2.60;;
4409;SDS011;2218;51.408;7.208;2023-07-13T08:00:31;8.80;;;1.30;;
4409;SDS011;2218;51.408;7.208;2023-07-13T08:02:59;4.30;;;2.33;;
4409;SDS011;2218;51.408;7.208;2023-07-13T08:05:27;9.87;;;1.97;;
4409;SDS011;2218;51.408;7.208;2023-07-13T08:07:53;3.37;;;1.90;;
4409;SDS011;2218;51.408;7.208;2023-07-13T08:10:21;4.50;;;1.70;;
4409;SDS011;2218;51.408;7.208;2023-07-13T08:12:48;6.53;;;2.20;;
4409;SDS011;2218;51.408;7.208;2023-07-13T08:15:15;4.10;;;1.73;;
4409;SDS011;2218;51.408;7.208;2023-07-13T08:17:45;4.60;;;1.63;;
4409;SDS011;2218;51.408;7.208;2023-07-13T08:20:15;1.93;;;1.63;;
4409;SDS011;2218;51.408;7.208;2023-07-13T08:22:42;3.70;;;1.40;;
4409;SDS011;2218;51.408;7.208;2023-07-13T08:25:09;10.20;;;1.87;;
4409;SDS011;2218;51.408;7.208;2023-07-13T08:27:36;1.43;;;1.17;;
4409;SDS011;2218;51.408;7.208;2023-07-13T08:30:03;3.83;;;1.50;;
4409;SDS011;2218;51.408;7.208;2023-07-13T08:32:33;4.57;;;1.63;;
4409;SDS011;2218;51.408;7.208;2023-07-13T08:35:00;7.20;;;2.40;;
4409;SDS011;2218;51.408;7.208;2023-07-13T08:37:28;2.60;;;1.40;;
4409;SDS011;2218;51.408;7.208;2023-07-13T08:39:55;5.23;;;2.23;;
4409;SDS011;2218;51.408;7.208;2023-07-13T08:42:26;6.60;;;2.17;;
4409;SDS011;2218;51.408;7.208;2023-07-13T08:45:07;9.03;;;1.60;;
4409;SDS011;2218;51.408;7.208;2023-07-13T08:47:44;3.07;;;1.40;;
4409;SDS011;2218;51.408;7.208;2023-07-13T08:50:19;7.47;;;1.50;;
4409;SDS011;2218;51.408;7.208;2023-07-13T08:52:54;3.83;;;1.63;;
4409;SDS011;2218;51.408;7.208;2023-07-13T08:55:24;1.60;;;1.40;;
4409;SDS011;2218;51.408;7.208;2023-07-13T08:58:00;1.73;;;1.20;;
4409;SDS011;2218;51.408;7.208;2023-07-13T09:00:37;2.30;;;1.37;;
4409;SDS011;2218;51.408;7.208;2023-07-13T09:03:17;7.40;;;1.50;;
4409;SDS011;2218;51.408;7.208;2023-07-13T09:05:50;7.43;;;2.03;;
4409;SDS011;2218;51.408;7.208;2023-07-13T09:08:30;5.50;;;1.60;;
4409;SDS011;2218;51.408;7.208;2023-07-13T09:11:16;4.13;;;2.00;;
4409;SDS011;2218;51.408;7.208;2023-07-13T09:14:06;3.77;;;1.40;;
4409;SDS011;2218;51.408;7.208;2023-07-13T09:17:00;5.33;;;1.90;;
4409;SDS011;2218;51.408;7.208;2023-07-13T09:19:31;4.30;;;1.50;;
4409;SDS011;2218;51.408;7.208;2023-07-13T09:22:01;4.23;;;1.60;;
4409;SDS011;2218;51.408;7.208;2023-07-13T09:24:37;4.83;;;1.73;;
4409;SDS011;2218;51.408;7.208;2023-07-13T09:27:13;4.50;;;2.00;;
4409;SDS011;2218;51.408;7.208;2023-07-13T09:29:47;5.80;;;1.80;;
4409;SDS011;2218;51.408;7.208;2023-07-13T09:32:22;3.90;;;1.87;;
4409;SDS011;2218;51.408;7.208;2023-07-13T09:34:52;4.70;;;2.13;;
4409;SDS011;2218;51.408;7.208;2023-07-13T09:37:20;7.33;;;2.27;;
4409;SDS011;2218;51.408;7.208;2023-07-13T09:39:55;4.20;;;1.87;;
4409;SDS011;2218;51.408;7.208;2023-07-13T09:42:25;5.57;;;1.87;;
4409;SDS011;2218;51.408;7.208;2023-07-13T09:44:54;7.63;;;2.20;;
4409;SDS011;2218;51.408;7.208;2023-07-13T09:47:24;6.07;;;1.93;;
4409;SDS011;2218;51.408;7.208;2023-07-13T09:49:54;4.70;;;2.60;;
4409;SDS011;2218;51.408;7.208;2023-07-13T09:52:24;5.17;;;1.90;;
4409;SDS011;2218;51.408;7.208;2023-07-13T09:54:54;7.47;;;2.50;;
4409;SDS011;2218;51.408;7.208;2023-07-13T09:57:25;8.47;;;2.50;;
4409;SDS011;2218;51.408;7.208;2023-07-13T09:59:54;7.60;;;2.50;;
4409;SDS011;2218;51.408;7.208;2023-07-13T10:02:25;4.77;;;1.87;;
4409;SDS011;2218;51.408;7.208;2023-07-13T10:04:58;2.00;;;1.80;;
4409;SDS011;2218;51.408;7.208;2023-07-13T10:07:28;7.30;;;1.93;;
4409;SDS011;2218;51.408;7.208;2023-07-13T10:09:59;7.97;;;2.60;;
4409;SDS011;2218;51.408;7.208;2023-07-13T10:12:28;4.20;;;2.17;;
4409;SDS011;2218;51.408;7.208;2023-07-13T10:15:01;15.80;;;2.53;;
4409;SDS011;2218;51.408;7.208;2023-07-13T10:17:34;11.97;;;2.10;;
4409;SDS011;2218;51.408;7.208;2023-07-13T10:20:02;13.73;;;2.47;;
4409;SDS011;2218;51.408;7.208;2023-07-13T10:22:38;8.13;;;2.50;;
4409;SDS011;2218;51.408;7.208;2023-07-13T10:25:19;4.93;;;2.00;;
4409;SDS011;2218;51.408;7.208;2023-07-13T10:27:50;4.07;;;1.93;;
4409;SDS011;2218;51.408;7.208;2023-07-13T10:30:25;6.47;;;2.13;;
4409;SDS011;2218;51.408;7.208;2023-07-13T10:32:58;8.53;;;2.20;;
4409;SDS011;2218;51.408;7.208;2023-07-13T10:35:29;5.20;;;2.00;;
4409;SDS011;2218;51.408;7.208;2023-07-13T10:37:59;4.10;;;2.20;;
4409;SDS011;2218;51.408;7.208;2023-07-13T10:40:35;5.90;;;2.40;;
4409;SDS011;2218;51.408;7.208;2023-07-13T10:43:09;6.20;;;2.23;;
4409;SDS011;2218;51.408;7.208;2023-07-13T10:45:46;5.23;;;2.20;;
4409;SDS011;2218;51.408;7.208;2023-07-13T10:48:15;4.50;;;1.87;;
4409;SDS011;2218;51.408;7.208;2023-07-13T10:50:44;5.87;;;2.33;;
4409;SDS011;2218;51.408;7.208;2023-07-13T10:53:19;5.97;;;2.10;;
4409;SDS011;2218;51.408;7.208;2023-07-13T10:55:56;6.40;;;2.13;;
4409;SDS011;2218;51.408;7.208;2023-07-13T10:58:32;6.17;;;2.37;;
4409;SDS011;2218;51.408;7.208;2023-07-13T11:01:07;3.73;;;2.17;;
4409;SDS011;2218;51.408;7.208;2023-07-13T11:03:37;6.73;;;2.33;;
4409;SDS011;2218;51.408;7.208;2023-07-13T11:06:30;7.37;;;2.10;;
4409;SDS011;2218;51.408;7.208;2023-07-13T11:09:17;6.10;;;2.10;;
4409;SDS011;2218;51.408;7.208;2023-07-13T11:11:59;5.30;;;2.07;;
4409;SDS011;2218;51.408;7.208;2023-07-13T11:14:29;5.90;;;2.10;;
4409;SDS011;2218;51.408;7.208;2023-07-13T11:23:08;4.50;;;1.80;;
4409;SDS011;2218;51.408;7.208;2023-07-13T11:25:46;6.53;;;1.73;;
4409;SDS011;2218;51.408;7.208;2023-07-13T11:28:21;4.23;;;1.87;;
4409;SDS011;2218;51.408;7.208;2023-07-13T11:31:12;18.43;;;3.00;;
4409;SDS011;2218;51.408;7.208;2023-07-13T11:36:30;4.13;;;1.33;;
4409;SDS011;2218;51.408;7.208;2023-07-13T11:39:05;2.60;;;1.83;;
4409;SDS011;2218;51.408;7.208;2023-07-13T11:41:48;3.20;;;1.20;;
4409;SDS011;2218;51.408;7.208;2023-07-13T11:44:22;2.53;;;1.80;;
4409;SDS011;2218;51.408;7.208;2023-07-13T11:46:52;3.93;;;1.60;;
4409;SDS011;2218;51.408;7.208;2023-07-13T11:49:22;1.80;;;1.50;;
4409;SDS011;2218;51.408;7.208;2023-07-13T11:51:52;12.33;;;1.87;;
4409;SDS011;2218;51.408;7.208;2023-07-13T11:54:23;14.77;;;2.53;;
4409;SDS011;2218;51.408;7.208;2023-07-13T11:56:55;10.23;;;2.40;;
4409;SDS011;2218;51.408;7.208;2023-07-13T11:59:28;6.90;;;2.00;;
4409;SDS011;2218;51.408;7.208;2023-07-13T12:01:58;4.63;;;2.07;;
4409;SDS011;2218;51.408;7.208;2023-07-13T12:04:27;8.30;;;2.13;;
4409;SDS011;2218;51.408;7.208;2023-07-13T12:07:03;9.77;;;1.80;;
4409;SDS011;2218;51.408;7.208;2023-07-13T12:09:34;10.20;;;1.67;;
4409;SDS011;2218;51.408;7.208;2023-07-13T12:12:02;3.60;;;1.53;;
4409;SDS011;2218;51.408;7.208;2023-07-13T12:14:37;5.03;;;1.80;;
4409;SDS011;2218;51.408;7.208;2023-07-13T12:17:07;4.83;;;2.00;;
4409;SDS011;2218;51.408;7.208;2023-07-13T12:19:41;6.03;;;1.40;;
4409;SDS011;2218;51.408;7.208;2023-07-13T12:22:08;4.67;;;1.83;;
4409;SDS011;2218;51.408;7.208;2023-07-13T12:24:39;6.83;;;2.20;;
4409;SDS011;2218;51.408;7.208;2023-07-13T12:27:16;4.23;;;1.80;;
4409;SDS011;2218;51.408;7.208;2023-07-13T12:29:52;10.07;;;2.20;;
4409;SDS011;2218;51.408;7.208;2023-07-13T12:32:25;5.53;;;2.30;;
4409;SDS011;2218;51.408;7.208;2023-07-13T12:34:57;6.97;;;1.77;;
4409;SDS011;2218;51.408;7.208;2023-07-13T12:37:41;9.63;;;2.23;;
4409;SDS011;2218;51.408;7.208;2023-07-13T12:40:13;6.50;;;2.00;;
4409;SDS011;2218;51.408;7.208;2023-07-13T12:42:43;10.40;;;2.07;;
4409;SDS011;2218;51.408;7.208;2023-07-13T12:45:17;13.60;;;2.00;;
4409;SDS011;2218;51.408;7.208;2023-07-13T12:47:49;4.67;;;1.87;;
4409;SDS011;2218;51.408;7.208;2023-07-13T12:50:22;4.60;;;1.77;;
4409;SDS011;2218;51.408;7.208;2023-07-13T12:52:55;3.00;;;1.73;;
4409;SDS011;2218;51.408;7.208;2023-07-13T12:55:29;5.70;;;1.57;;
4409;SDS011;2218;51.408;7.208;2023-07-13T12:57:58;5.07;;;2.10;;
4409;SDS011;2218;51.408;7.208;2023-07-13T13:00:31;9.63;;;2.03;;
4409;SDS011;2218;51.408;7.208;2023-07-13T13:03:05;7.70;;;1.90;;
4409;SDS011;2218;51.408;7.208;2023-07-13T13:05:45;6.17;;;2.43;;
4409;SDS011;2218;51.408;7.208;2023-07-13T13:08:13;5.50;;;1.73;;
4409;SDS011;2218;51.408;7.208;2023-07-13T13:10:40;14.90;;;2.00;;
4409;SDS011;2218;51.408;7.208;2023-07-13T13:13:07;7.10;;;2.10;;
4409;SDS011;2218;51.408;7.208;2023-07-13T13:15:36;4.30;;;2.13;;
4409;SDS011;2218;51.408;7.208;2023-07-13T13:18:04;6.53;;;2.47;;
4409;SDS011;2218;51.408;7.208;2023-07-13T13:20:42;5.37;;;1.77;;
4409;SDS011;2218;51.408;7.208;2023-07-13T13:23:10;10.90;;;1.93;;
4409;SDS011;2218;51.408;7.208;2023-07-13T13:25:42;5.30;;;1.80;;
4409;SDS011;2218;51.408;7.208;2023-07-13T13:28:14;6.73;;;2.00;;
4409;SDS011;2218;51.408;7.208;2023-07-13T13:30:45;7.07;;;1.83;;
4409;SDS011;2218;51.408;7.208;2023-07-13T13:33:18;4.73;;;1.77;;
4409;SDS011;2218;51.408;7.208;2023-07-13T13:35:47;2.00;;;1.70;;
4409;SDS011;2218;51.408;7.208;2023-07-13T13:38:15;8.27;;;1.70;;
4409;SDS011;2218;51.408;7.208;2023-07-13T13:40:49;4.70;;;1.60;;
4409;SDS011;2218;51.408;7.208;2023-07-13T13:43:17;2.93;;;1.50;;
4409;SDS011;2218;51.408;7.208;2023-07-13T13:45:52;2.90;;;1.30;;
4409;SDS011;2218;51.408;7.208;2023-07-13T13:48:25;3.23;;;1.37;;
4409;SDS011;2218;51.408;7.208;2023-07-13T13:50:58;2.70;;;1.80;;
4409;SDS011;2218;51.408;7.208;2023-07-13T13:53:27;3.13;;;1.33;;
4409;SDS011;2218;51.408;7.208;2023-07-13T13:55:53;2.90;;;1.90;;
4409;SDS011;2218;51.408;7.208;2023-07-13T13:58:21;5.60;;;1.77;;
4409;SDS011;2218;51.408;7.208;2023-07-13T14:00:48;2.57;;;1.87;;
4409;SDS011;2218;51.408;7.208;2023-07-13T14:03:17;7.10;;;1.80;;
4409;SDS011;2218;51.408;7.208;2023-07-13T14:05:47;5.00;;;2.20;;
4409;SDS011;2218;51.408;7.208;2023-07-13T14:08:15;3.37;;;2.10;;
4409;SDS011;2218;51.408;7.208;2023-07-13T14:10:46;3.97;;;2.60;;
4409;SDS011;2218;51.408;7.208;2023-07-13T14:13:17;4.60;;;2.60;;
4409;SDS011;2218;51.408;7.208;2023-07-13T14:15:48;7.70;;;3.07;;
4409;SDS011;2218;51.408;7.208;2023-07-13T14:18:17;5.60;;;2.20;;
4409;SDS011;2218;51.408;7.208;2023-07-13T14:20:44;4.67;;;2.50;;
4409;SDS011;2218;51.408;7.208;2023-07-13T14:23:12;6.70;;;2.50;;
4409;SDS011;2218;51.408;7.208;2023-07-13T14:25:43;3.47;;;1.90;;
4409;SDS011;2218;51.408;7.208;2023-07-13T14:28:22;6.63;;;2.83;;
4409;SDS011;2218;51.408;7.208;2023-07-13T14:30:51;4.40;;;2.43;;
4409;SDS011;2218;51.408;7.208;2023-07-13T14:33:21;8.67;;;2.10;;
4409;SDS011;2218;51.408;7.208;2023-07-13T14:35:49;7.87;;;2.23;;
4409;SDS011;2218;51.408;7.208;2023-07-13T14:38:17;6.20;;;2.53;;
4409;SDS011;2218;51.408;7.208;2023-07-13T14:40:46;12.03;;;2.30;;
4409;SDS011;2218;51.408;7.208;2023-07-13T14:43:14;2.70;;;2.10;;
4409;SDS011;2218;51.408;7.208;2023-07-13T14:45:43;3.33;;;1.93;;
4409;SDS011;2218;51.408;7.208;2023-07-13T14:48:15;3.20;;;1.70;;
4409;SDS011;2218;51.408;7.208;2023-07-13T14:50:49;3.10;;;1.40;;
4409;SDS011;2218;51.408;7.208;2023-07-13T14:53:20;4.13;;;1.70;;
4409;SDS011;2218;51.408;7.208;2023-07-13T14:55:48;2.27;;;1.33;;
4409;SDS011;2218;51.408;7.208;2023-07-13T14:58:15;3.53;;;1.73;;
4409;SDS011;2218;51.408;7.208;2023-07-13T15:00:42;7.03;;;1.30;;
4409;SDS011;2218;51.408;7.208;2023-07-13T15:03:14;1.60;;;1.50;;
4409;SDS011;2218;51.408;7.208;2023-07-13T15:05:47;3.43;;;1.57;;
4409;SDS011;2218;51.408;7.208;2023-07-13T15:08:16;2.70;;;1.50;;
4409;SDS011;2218;51.408;7.208;2023-07-13T15:10:43;5.80;;;1.30;;
4409;SDS011;2218;51.408;7.208;2023-07-13T15:13:14;6.87;;;1.40;;
4409;SDS011;2218;51.408;7.208;2023-07-13T15:15:45;3.80;;;1.30;;
4409;SDS011;2218;51.408;7.208;2023-07-13T15:18:17;2.70;;;1.10;;
4409;SDS011;2218;51.408;7.208;2023-07-13T15:20:49;1.40;;;1.30;;
4409;SDS011;2218;51.408;7.208;2023-07-13T15:23:18;2.60;;;1.10;;
4409;SDS011;2218;51.408;7.208;2023-07-13T15:25:45;1.47;;;1.37;;
4409;SDS011;2218;51.408;7.208;2023-07-13T15:28:12;6.83;;;1.40;;
4409;SDS011;2218;51.408;7.208;2023-07-13T15:30:40;9.07;;;1.70;;
4409;SDS011;2218;51.408;7.208;2023-07-13T15:33:11;3.43;;;1.50;;
4409;SDS011;2218;51.408;7.208;2023-07-13T15:35:49;3.63;;;1.30;;
4409;SDS011;2218;51.408;7.208;2023-07-13T15:38:20;1.20;;;1.00;;
4409;SDS011;2218;51.408;7.208;2023-07-13T15:40:50;5.03;;;1.47;;
4409;SDS011;2218;51.408;7.208;2023-07-13T15:43:18;3.30;;;1.30;;